createdAt,value
2018-09-17T00:01:07.096Z,6.37
2018-09-17T00:06:10.388Z,7.40
2018-09-17T00:11:13.663Z,6.17
2018-09-17T00:16:17.019Z,7.60
2018-09-17T00:21:20.329Z,6.50
2018-09-17T00:26:23.594Z,7.27
2018-09-17T00:31:26.836Z,6.47
2018-09-17T00:36:29.871Z,8.27
2018-09-17T00:41:33.136Z,8.00
2018-09-17T00:46:36.404Z,8.93
2018-09-17T00:51:39.717Z,8.47
2018-09-17T00:56:42.721Z,8.73
2018-09-17T01:01:52.312Z,7.70
2018-09-17T01:06:55.624Z,7.90
2018-09-17T01:11:59.620Z,7.93
2018-09-17T01:17:02.916Z,8.40
2018-09-17T01:22:06.184Z,8.57
2018-09-17T01:27:09.479Z,8.63
2018-09-17T01:32:12.731Z,8.20
2018-09-17T01:37:16.024Z,9.17
2018-09-17T01:42:19.332Z,9.30
2018-09-17T01:47:22.607Z,8.70
2018-09-17T01:52:25.906Z,9.90
2018-09-17T01:57:29.165Z,7.77
2018-09-17T02:02:32.885Z,8.33
2018-09-17T02:07:36.171Z,9.03
2018-09-17T02:12:39.456Z,8.43
2018-09-17T02:17:42.753Z,7.97
2018-09-17T02:22:46.068Z,7.33
2018-09-17T02:27:49.335Z,7.17
2018-09-17T02:32:52.606Z,7.53
2018-09-17T02:37:55.657Z,7.17
2018-09-17T02:42:58.912Z,7.17
2018-09-17T02:48:02.176Z,9.80
2018-09-17T02:53:05.460Z,9.73
2018-09-17T02:58:08.757Z,7.57
2018-09-17T03:03:11.754Z,9.10
2018-09-17T03:08:15.011Z,7.60
2018-09-17T03:13:18.366Z,7.87
2018-09-17T03:18:34.477Z,8.63
2018-09-17T03:23:38.514Z,7.93
2018-09-17T03:28:41.772Z,7.80
2018-09-17T03:33:45.062Z,8.37
2018-09-17T03:38:49.276Z,8.17
2018-09-17T03:43:52.889Z,7.53
2018-09-17T03:48:56.162Z,8.73
2018-09-17T03:53:59.443Z,8.07
2018-09-17T03:59:02.737Z,8.53
2018-09-17T04:04:06.258Z,9.97
2018-09-17T04:09:09.702Z,8.67
2018-09-17T04:14:13.075Z,10.27
2018-09-17T04:19:16.497Z,11.07
2018-09-17T04:24:19.906Z,9.87
2018-09-17T04:29:23.275Z,7.90
2018-09-17T04:34:26.564Z,9.10
2018-09-17T04:39:29.910Z,9.33
2018-09-17T04:44:33.168Z,8.27
2018-09-17T04:49:36.411Z,8.40
2018-09-17T04:54:39.389Z,8.57
2018-09-17T04:59:42.716Z,8.13
2018-09-17T05:04:45.733Z,8.23
2018-09-17T05:09:49.109Z,7.53
2018-09-17T05:14:52.371Z,9.53
2018-09-17T05:19:55.612Z,9.57
2018-09-17T05:24:58.874Z,9.97
2018-09-17T05:30:02.132Z,9.33
2018-09-17T05:35:05.513Z,8.30
2018-09-17T05:40:08.771Z,11.40
2018-09-17T05:45:12.022Z,7.77
2018-09-17T05:50:15.283Z,11.73
2018-09-17T05:55:18.539Z,7.17
2018-09-17T06:00:21.807Z,7.00
2018-09-17T06:05:25.069Z,12.97
2018-09-17T06:10:28.321Z,9.33
2018-09-17T06:15:31.570Z,8.20
2018-09-17T06:20:34.837Z,9.67
2018-09-17T06:25:38.091Z,8.53
2018-09-17T06:30:44.275Z,10.67
2018-09-17T06:35:47.571Z,8.60
2018-09-17T06:40:50.839Z,9.33
2018-09-17T06:45:54.098Z,8.90
2018-09-17T06:50:57.372Z,8.57
2018-09-17T06:56:00.627Z,9.50
2018-09-17T07:01:03.927Z,10.07
2018-09-17T07:06:07.204Z,9.53
2018-09-17T07:11:11.130Z,9.47
2018-09-17T07:16:14.399Z,10.27
2018-09-17T07:21:17.664Z,16.33
2018-09-17T07:26:20.947Z,11.50
2018-09-17T07:31:30.860Z,12.00
2018-09-17T07:36:34.203Z,13.33
2018-09-17T07:41:37.445Z,12.10
2018-09-17T07:46:40.701Z,13.43
2018-09-17T07:51:43.966Z,11.80
2018-09-17T07:56:47.249Z,16.17
2018-09-17T08:01:50.513Z,12.53
2018-09-17T08:06:53.779Z,13.05
2018-09-17T08:11:57.051Z,12.25
2018-09-17T08:17:00.361Z,20.17
2018-09-17T08:22:03.582Z,13.55
2018-09-17T08:27:06.856Z,15.15
2018-09-17T08:32:10.115Z,14.90
2018-09-17T08:37:13.392Z,16.48
2018-09-17T08:42:16.657Z,24.90
2018-09-17T08:47:19.920Z,16.70
2018-09-17T08:52:23.193Z,18.25
2018-09-17T08:57:31.516Z,23.38
2018-09-17T09:02:40.124Z,15.93
2018-09-17T09:07:48.904Z,18.00
2018-09-17T09:12:57.691Z,17.48
2018-09-17T09:18:00.964Z,18.10
2018-09-17T09:23:04.270Z,19.52
2018-09-17T09:28:07.540Z,21.67
2018-09-17T09:33:10.805Z,19.37
2018-09-17T09:38:14.093Z,18.97
2018-09-17T09:43:17.340Z,18.20
2018-09-17T09:48:20.611Z,19.25
2018-09-17T09:53:23.888Z,17.55
2018-09-17T09:58:27.136Z,17.15
2018-09-17T10:03:34.630Z,17.40
2018-09-17T10:09:40.978Z,17.05
2018-09-17T10:14:49.614Z,14.65
2018-09-17T10:19:53.339Z,13.75
2018-09-17T10:24:56.608Z,14.23
2018-09-17T10:29:59.956Z,12.65
2018-09-17T10:35:03.224Z,13.38
2018-09-17T10:40:06.485Z,13.95
2018-09-17T10:45:09.759Z,11.50
2018-09-17T10:50:13.099Z,12.40
2018-09-17T10:55:16.351Z,15.05
2018-09-17T11:00:19.688Z,13.53
2018-09-17T11:05:22.960Z,13.65
2018-09-17T11:10:26.264Z,11.97
2018-09-17T11:15:33.744Z,13.13
2018-09-17T11:20:36.991Z,12.20
2018-09-17T11:25:40.278Z,12.03
2018-09-17T11:30:43.607Z,9.10
2018-09-17T11:35:46.915Z,11.00
2018-09-17T11:40:50.172Z,9.90
2018-09-17T11:45:53.423Z,8.15
2018-09-17T11:50:56.674Z,9.73
2018-09-17T11:55:59.928Z,9.88
2018-09-17T12:01:08.628Z,8.53
2018-09-17T12:06:11.888Z,8.48
2018-09-17T12:11:15.826Z,7.28
2018-09-17T12:16:19.090Z,8.40
2018-09-17T12:21:22.965Z,7.95
2018-09-17T12:26:26.518Z,8.80
2018-09-17T12:31:29.788Z,9.80
2018-09-17T12:36:33.358Z,7.35
2018-09-17T12:41:36.624Z,7.55
2018-09-17T12:46:39.867Z,8.20
2018-09-17T12:51:43.130Z,7.10
2018-09-17T12:56:46.428Z,7.08
2018-09-17T13:01:49.677Z,7.17
2018-09-17T13:06:52.939Z,6.80
2018-09-17T13:11:56.214Z,6.55
2018-09-17T13:16:59.471Z,7.30
2018-09-17T13:22:02.748Z,7.30
2018-09-17T13:27:06.974Z,6.58
2018-09-17T13:32:10.236Z,6.30
2018-09-17T13:37:13.511Z,7.55
2018-09-17T13:42:16.771Z,8.93
2018-09-17T13:47:20.049Z,6.25
2018-09-17T13:52:23.311Z,7.60
2018-09-17T13:57:26.692Z,7.05
2018-09-17T14:02:29.952Z,9.15
2018-09-17T14:07:33.248Z,8.53
2018-09-17T14:12:36.518Z,6.20
2018-09-17T14:17:39.777Z,7.10
2018-09-17T14:22:43.054Z,6.78
2018-09-17T14:27:47.243Z,6.60
2018-09-17T14:33:59.564Z,6.50
2018-09-17T14:39:02.847Z,7.37
2018-09-17T14:44:06.134Z,5.87
2018-09-17T14:49:09.463Z,7.80
2018-09-17T14:54:12.677Z,6.95
2018-09-17T14:59:15.939Z,7.70
2018-09-17T15:04:19.256Z,8.00
2018-09-17T15:09:22.476Z,9.73
2018-09-17T15:14:25.914Z,7.35
2018-09-17T15:19:29.016Z,6.85
2018-09-17T15:24:32.272Z,6.92
2018-09-17T15:29:35.528Z,7.90
2018-09-17T15:34:38.812Z,8.05
2018-09-17T15:39:42.055Z,8.88
2018-09-17T15:44:45.340Z,12.53
2018-09-17T15:49:48.643Z,12.88
2018-09-17T15:54:51.864Z,10.05
2018-09-17T15:59:55.123Z,9.63
2018-09-17T16:04:58.383Z,10.20
2018-09-17T16:10:01.624Z,8.73
2018-09-17T16:15:04.928Z,8.05
2018-09-17T16:20:08.178Z,11.40
2018-09-17T16:25:11.484Z,10.60
2018-09-17T16:30:14.748Z,10.33
2018-09-17T16:35:18.040Z,9.87
2018-09-17T16:40:21.378Z,10.75
2018-09-17T16:45:24.791Z,9.67
2018-09-17T16:50:28.066Z,11.00
2018-09-17T16:55:31.323Z,13.37
2018-09-17T17:00:34.575Z,12.40
2018-09-17T17:05:37.825Z,9.83
2018-09-17T17:10:41.424Z,10.47
2018-09-17T17:15:48.159Z,9.17
2018-09-17T17:20:51.542Z,11.60
2018-09-17T17:25:54.818Z,10.37
2018-09-17T17:30:58.108Z,10.10
2018-09-17T17:36:01.391Z,9.67
2018-09-17T17:41:04.719Z,12.53
2018-09-17T17:46:08.329Z,10.83
2018-09-17T17:51:11.572Z,10.20
2018-09-17T17:56:14.830Z,11.67
2018-09-17T18:01:18.188Z,12.10
2018-09-17T18:06:21.431Z,11.57
2018-09-17T18:11:24.702Z,12.43
2018-09-17T18:16:30.631Z,12.80
2018-09-17T18:21:33.944Z,15.53
2018-09-17T18:26:37.700Z,15.27
2018-09-17T18:31:40.709Z,12.73
2018-09-17T18:36:43.887Z,13.33
2018-09-17T18:41:47.276Z,13.20
2018-09-17T18:46:50.576Z,14.93
2018-09-17T18:51:54.276Z,16.10
2018-09-17T18:56:57.615Z,12.77
2018-09-17T19:02:00.562Z,16.53
2018-09-17T19:07:04.018Z,13.60
2018-09-17T19:12:07.208Z,13.77
2018-09-17T19:17:15.697Z,13.40
2018-09-17T19:22:24.547Z,13.97
2018-09-17T19:29:35.440Z,14.60
2018-09-17T19:34:38.714Z,14.20
2018-09-17T19:39:47.215Z,14.80
2018-09-17T19:44:57.660Z,14.60
2018-09-17T19:50:01.744Z,15.80
2018-09-17T19:55:05.065Z,14.80
2018-09-17T20:00:08.339Z,19.03
2018-09-17T20:05:17.078Z,18.80
2018-09-17T20:10:21.691Z,48.27
2018-09-17T20:15:26.465Z,41.17
2018-09-17T20:20:30.059Z,38.40
2018-09-17T20:25:35.366Z,18.40
2018-09-17T20:30:38.724Z,19.53
2018-09-17T20:35:42.032Z,17.30
2018-09-17T20:40:45.672Z,18.50
2018-09-17T20:45:49.966Z,17.07
2018-09-17T20:50:56.474Z,15.83
2018-09-17T20:56:00.409Z,16.80
2018-09-17T21:01:05.262Z,17.00
2018-09-17T21:06:08.501Z,16.00
2018-09-17T21:11:12.822Z,15.80
2018-09-17T21:16:16.669Z,16.07
2018-09-17T21:21:20.837Z,15.73
2018-09-17T21:26:25.023Z,15.13
2018-09-17T21:31:29.656Z,16.13
2018-09-17T21:36:34.419Z,15.57
2018-09-17T21:41:38.012Z,17.97
2018-09-17T21:46:41.659Z,17.07
2018-09-17T21:51:44.945Z,15.17
2018-09-17T21:56:48.211Z,17.40
2018-09-17T22:01:51.480Z,14.60
2018-09-17T22:06:54.735Z,16.70
2018-09-17T22:11:57.733Z,17.43
2018-09-17T22:17:00.988Z,16.17
2018-09-17T22:22:04.260Z,16.30
2018-09-17T22:27:07.776Z,16.33
2018-09-17T22:32:10.811Z,16.13
2018-09-17T22:37:13.810Z,18.07
2018-09-17T22:42:17.104Z,16.97
2018-09-17T22:47:20.349Z,34.03
2018-09-17T22:52:23.807Z,26.10
2018-09-17T22:57:27.068Z,55.37
2018-09-17T23:02:30.327Z,85.10
2018-09-17T23:07:33.595Z,110.90
2018-09-17T23:12:36.871Z,107.17
2018-09-17T23:17:40.094Z,74.43
2018-09-17T23:22:43.347Z,58.40
2018-09-17T23:27:46.634Z,62.77
2018-09-17T23:32:49.878Z,57.80
2018-09-17T23:37:53.176Z,61.57
2018-09-17T23:42:56.198Z,53.43
2018-09-17T23:47:59.469Z,53.07
2018-09-17T23:53:02.710Z,44.60
2018-09-17T23:58:05.986Z,45.43
